Latest Weather Observations for King Island Airport

IDT60801

Issued at 9:02 am EST Saturday 27 August 2016 (issued every 30 minutes, with the page automatically refreshed every 10 minutes)

About weather observations | Map of weather stations | Latest weather observations for TAS | Other Formats
Station Details ID: 098017 Name: KING ISLAND AIRPORT Lat: -39.88 Lon: 143.88 Height: 37.0 m
Data from the previous 72 hours. | See also: Recent months at King Island Airport
Date/Time
EST
Temp
°C
App
Temp
°C
Dew
Point
°C
Rel
Hum
%
Delta-T
°C
Wind Press
QNH
hPa
Press
MSL
hPa
Rain since
9am
mm
Dir  Spd
km/h
Gust
km/h
Spd
kts
Gust
kts
27/09:00am 12.0 3.5 8.7 80 1.6 NW 43 56 23 30 1017.9 1017.9 3.6
27/08:30am 11.7 4.8 8.9 83 1.4 NW 35 43 19 23 1017.8 1017.8 3.6
27/08:00am 11.3 3.9 8.3 82 1.5 WNW 37 48 20 26 1017.9 1017.9 3.6
27/07:30am 11.1 3.2 8.0 81 1.5 WNW 39 52 21 28 1017.7 1017.7 3.6
27/07:00am 10.8 3.7 8.0 83 1.4 WNW 35 48 19 26 1017.6 1017.6 3.6
27/06:30am 10.4 4.7 8.3 87 1.0 WNW 28 37 15 20 1017.4 1017.4 3.6
27/06:00am 10.0 5.5 8.6 91 0.7 WNW 22 32 12 17 1017.6 1017.6 3.6
27/05:30am 10.3 3.7 8.4 88 0.9 WNW 33 48 18 26 1018.0 1018.0 3.2
27/05:05am 10.8 4.1 8.2 84 1.3 W 33 52 18 28 1017.8 1017.8 3.2
27/05:00am 11.1 4.0 8.0 81 1.5 WNW 35 52 19 28 1017.8 1017.8 3.2
27/04:45am 10.9 4.7 8.0 82 1.4 W 30 48 16 26 1017.7 1017.7 3.2
27/04:30am 11.2 4.7 8.2 82 1.5 W 32 46 17 25 1017.6 1017.6 3.2
27/04:00am 10.9 5.2 8.5 85 1.2 WNW 28 41 15 22 1017.7 1017.7 3.2
27/03:57am 10.5 3.9 7.9 84 1.3 WNW 32 50 17 27 1017.7 1017.7 3.2
27/03:30am 10.8 5.6 8.7 87 1.0 W 26 33 14 18 1017.6 1017.6 3.2
27/03:00am 10.6 5.8 8.7 88 0.9 WNW 24 33 13 18 1017.6 1017.6 3.2
27/02:30am 10.3 5.8 8.7 90 0.8 WNW 22 28 12 15 1017.8 1017.8 3.2
27/02:00am 10.3 5.0 8.4 88 0.9 WNW 26 35 14 19 1018.1 1018.1 3.2
27/01:30am 10.1 6.0 7.9 86 1.1 WNW 19 30 10 16 1018.1 1018.1 3.2
27/01:00am 9.9 5.6 7.8 87 1.0 W 20 30 11 16 1018.4 1018.4 3.2
27/12:30am 9.6 5.9 8.0 90 0.8 WNW 17 26 9 14 1018.5 1018.5 3.2
27/12:00am 9.5 5.8 7.8 89 0.8 WNW 17 26 9 14 1018.7 1018.7 3.2
 
Date/Time
EST
Temp
°C
App
Temp
°C
Dew
Point
°C
Rel
Hum
%
Delta-T
°C
Wind Press
QNH
hPa
Press
MSL
hPa
Rain since
9am
mm
Dir  Spd
km/h
Gust
km/h
Spd
kts
Gust
kts
26/11:30pm 9.9 5.3 8.0 88 0.9 W 22 28 12 15 1019.0 1019.0 3.2
26/11:00pm 10.3 6.2 8.7 90 0.8 W 20 32 11 17 1019.1 1019.1 3.2
26/10:35pm 9.5 5.8 7.9 90 0.8 W 17 22 9 12 1019.2 1019.2 3.2
26/10:30pm 9.6 5.5 8.0 90 0.8 W 19 32 10 17 1019.2 1019.2 2.8
26/10:22pm 10.0 4.3 8.4 90 0.8 WNW 28 35 15 19 1019.3 1019.3 2.8
26/10:14pm 10.4 6.3 8.5 88 0.9 WNW 20 32 11 17 1019.2 1019.2 2.0
26/10:01pm 10.4 4.7 8.2 86 1.1 W 28 39 15 21 1019.3 1019.3 2.0
26/10:00pm 10.4 5.0 8.0 85 1.2 W 26 39 14 21 1019.3 1019.3 2.0
26/09:30pm 10.3 6.0 7.9 85 1.2 W 20 35 11 19 1019.2 1019.2 1.4
26/09:00pm 9.8 5.6 8.2 90 0.8 WNW 20 30 11 16 1019.3 1019.3 1.4
26/08:42pm 9.8 5.6 8.2 90 0.8 WNW 20 28 11 15 1019.3 1019.3 1.4
26/08:30pm 10.4 4.7 8.5 88 0.9 W 28 50 15 27 1019.3 1019.3 1.4
26/08:28pm 10.4 4.7 8.3 87 1.0 W 28 50 15 27 1019.3 1019.3 1.4
26/08:00pm 11.0 6.5 6.9 76 1.9 W 20 28 11 15 1019.1 1019.1 0.6
26/07:30pm 11.0 6.3 7.7 80 1.6 WNW 22 28 12 15 1019.0 1019.0 0.6
26/07:00pm 10.6 5.6 6.6 76 1.9 W 22 32 12 17 1019.0 1019.0 0.6
26/06:30pm 10.6 4.5 6.6 76 1.9 W 28 35 15 19 1019.0 1019.0 0.6
26/06:00pm 10.6 5.2 6.2 74 2.0 W 24 32 13 17 1018.7 1018.7 0.6
26/05:30pm 10.9 6.3 6.5 74 2.1 W 20 28 11 15 1018.5 1018.5 0.6
26/05:00pm 11.4 5.5 5.9 69 2.6 W 26 35 14 19 1018.3 1018.3 0.6
26/04:30pm 12.0 6.7 6.7 70 2.5 W 24 37 13 20 1018.2 1018.2 0.6
26/04:00pm 11.9 5.8 6.6 70 2.5 W 28 37 15 20 1018.3 1018.3 0.6
26/03:30pm 12.2 6.5 6.5 68 2.7 W 26 33 14 18 1018.2 1018.2 0.6
26/03:00pm 12.1 5.4 5.7 65 3.0 W 30 39 16 21 1018.2 1018.2 0.6
26/02:30pm 12.0 5.5 6.3 68 2.7 W 30 41 16 22 1018.3 1018.3 0.6
26/02:00pm 12.1 5.8 5.7 65 3.0 W 28 39 15 21 1018.3 1018.3 0.6
26/01:30pm 12.5 5.6 6.3 66 2.9 WSW 32 39 17 21 1018.5 1018.5 0.6
26/01:00pm 12.1 5.9 6.2 67 2.8 W 28 39 15 21 1018.7 1018.7 0.6
26/12:30pm 11.5 4.8 5.8 68 2.7 W 30 39 16 21 1019.1 1019.1 0.6
26/12:00pm 11.5 4.5 6.0 69 2.6 W 32 41 17 22 1019.4 1019.4 0.6
26/11:30am 11.2 5.3 5.7 69 2.5 W 26 35 14 19 1019.6 1019.6 0.6
26/11:00am 10.6 5.5 7.5 81 1.5 W 24 33 13 18 1019.6 1019.6 0.4
26/10:30am 11.7 7.2 8.6 81 1.5 W 22 32 12 17 1019.8 1019.8 0.4
26/10:00am 10.2 5.0 7.3 82 1.4 W 24 33 13 18 1020.1 1020.1 0.4
26/09:30am 10.9 5.8 5.9 71 2.3 W 22 30 12 16 1020.0 1020.0 0.0
26/09:00am 10.7 6.0 5.3 69 2.5 W 19 24 10 13 1019.9 1019.9 0.0
26/08:30am 9.8 4.7 3.3 64 2.8 W 19 26 10 14 1019.7 1019.7 0.0
26/08:00am 9.5 4.7 5.7 77 1.7 W 20 28 11 15 1019.7 1019.7 0.0
26/07:30am 9.4 4.5 4.0 69 2.4 WSW 19 28 10 15 1019.3 1019.3 0.0
26/07:00am 8.9 4.0 4.9 76 1.8 W 20 26 11 14 1019.2 1019.2 0.0
26/06:30am 9.3 4.2 3.9 69 2.4 W 20 30 11 16 1019.0 1019.0 0.0
26/06:00am 9.5 2.7 3.0 64 2.8 WSW 28 37 15 20 1018.9 1018.9 0.0
26/05:30am 9.3 3.5 4.5 72 2.1 W 24 32 13 17 1018.7 1018.7 0.0
26/05:00am 9.6 3.5 2.9 63 2.9 W 24 33 13 18 1018.6 1018.6 0.0
26/04:30am 9.5 3.7 4.3 70 2.3 W 24 33 13 18 1018.4 1018.4 0.0
26/04:00am 9.5 4.1 2.6 62 2.9 WSW 20 32 11 17 1018.3 1018.3 0.0
26/03:30am 9.8 3.8 3.1 63 2.9 WSW 24 33 13 18 1018.2 1018.2 0.0
26/03:00am 9.7 4.7 4.7 71 2.2 W 20 32 11 17 1018.1 1018.1 0.0
26/02:30am 9.4 4.2 3.4 66 2.6 W 20 28 11 15 1018.2 1018.2 0.0
26/02:00am 9.5 4.3 3.5 66 2.6 W 20 28 11 15 1018.4 1018.4 0.0
26/01:30am 9.8 3.5 3.5 65 2.7 W 26 33 14 18 1018.4 1018.4 0.0
26/01:00am 9.5 5.7 6.0 79 1.6 WSW 15 20 8 11 1018.3 1018.3 0.0
26/12:30am 9.3 3.6 5.1 75 1.9 WSW 24 35 13 19 1018.5 1018.5 0.0
26/12:00am 9.5 4.9 5.7 77 1.7 WSW 19 26 10 14 1018.6 1018.6 0.0
 
Date/Time
EST
Temp
°C
App
Temp
°C
Dew
Point
°C
Rel
Hum
%
Delta-T
°C
Wind Press
QNH
hPa
Press
MSL
hPa
Rain since
9am
mm
Dir  Spd
km/h
Gust
km/h
Spd
kts
Gust
kts
25/11:30pm 8.8 4.9 5.4 79 1.5 WSW 15 20 8 11 1018.6 1018.6 0.0
25/11:00pm 9.2 5.8 6.1 81 1.4 WSW 13 17 7 9 1018.6 1018.6 0.0
25/10:30pm 9.2 6.2 5.8 79 1.6 WSW 11 17 6 9 1018.8 1018.8 0.0
25/10:00pm 9.2 5.3 5.4 77 1.7 WSW 15 20 8 11 1018.9 1018.9 0.0
25/09:30pm 9.5 4.3 5.7 77 1.7 WSW 22 32 12 17 1018.9 1018.9 0.0
25/09:00pm 9.3 5.5 3.7 68 2.4 SW 13 17 7 9 1018.6 1018.6 0.0
25/08:30pm 9.1 5.5 3.1 66 2.6 SW 11 15 6 8 1018.6 1018.6 0.0
25/08:00pm 9.1 4.6 2.4 63 2.8 SW 15 19 8 10 1018.4 1018.4 0.0
25/07:30pm 9.7 4.6 2.8 62 3.0 SW 19 28 10 15 1018.3 1018.3 0.0
25/07:00pm 9.8 4.7 2.9 62 3.0 SW 19 26 10 14 1018.0 1018.0 0.0
25/06:30pm 9.7 3.6 2.8 62 3.0 SW 24 32 13 17 1017.6 1017.6 0.0
25/06:00pm 9.5 3.4 2.8 63 2.9 SW 24 32 13 17 1017.2 1017.2 0.0
25/05:30pm 10.1 4.1 3.6 64 2.8 SW 24 32 13 17 1016.7 1016.7 0.0
25/05:00pm 10.8 5.0 4.3 64 2.9 SSW 24 33 13 18 1016.4 1016.4 0.0
25/04:30pm 10.8 3.9 4.7 66 2.8 SSW 30 39 16 21 1016.2 1016.2 0.0
25/04:00pm 11.3 4.2 5.4 67 2.7 SSW 32 41 17 22 1016.1 1016.1 0.0
25/03:30pm 11.6 5.2 5.3 65 2.9 SSW 28 37 15 20 1016.0 1016.0 0.0
25/03:00pm 12.0 5.8 6.1 67 2.8 SSW 28 37 15 20 1016.0 1016.0 0.0
25/02:30pm 11.8 4.3 6.3 69 2.6 SSW 35 44 19 24 1015.7 1015.7 0.0
25/02:00pm 12.0 6.0 5.2 63 3.1 SSW 26 37 14 20 1015.4 1015.4 0.0
25/01:30pm 11.8 5.1 5.7 66 2.8 SSW 30 35 16 19 1015.4 1015.4 0.0
25/01:00pm 11.8 4.4 5.2 64 3.0 SSW 33 39 18 21 1015.5 1015.5 0.0
25/12:30pm 11.4 4.0 5.1 65 2.9 SSW 33 41 18 22 1015.6 1015.6 0.0
25/12:00pm 11.9 4.9 6.2 68 2.7 SSW 32 41 17 22 1015.5 1015.5 0.0
25/11:30am 12.2 6.4 6.3 67 2.8 SSW 26 37 14 20 1015.3 1015.3 0.0
25/11:00am 12.2 5.7 6.5 68 2.7 SSW 30 37 16 20 1015.3 1015.3 0.0
25/10:30am 12.1 6.4 6.6 69 2.6 SSW 26 39 14 21 1015.1 1015.1 0.0
25/10:00am 11.4 5.6 6.1 70 2.5 SSW 26 35 14 19 1015.0 1015.0 0.0
25/09:30am 10.4 5.1 5.2 70 2.4 SSW 22 33 12 18 1014.8 1014.8 0.0
25/09:00am 10.3 4.6 4.9 69 2.4 SSW 24 32 13 17 1014.5 1014.5 6.6
25/08:30am 9.6 6.7 6.7 82 1.4 S 11 15 6 8 1014.4 1014.4 6.6
25/08:00am 8.7 3.5 5.4 80 1.5 SSW 22 30 12 16 1014.3 1014.3 6.4
25/07:30am 8.5 5.4 5.4 81 1.4 S 11 15 6 8 1014.0 1014.0 6.4
25/07:00am 7.5 4.2 4.3 80 1.4 S 11 15 6 8 1013.7 1013.7 6.4
25/06:30am 8.4 4.0 4.8 78 1.6 SSW 17 22 9 12 1013.3 1013.3 6.4
25/06:00am 8.1 3.7 4.9 80 1.4 SSW 17 24 9 13 1013.0 1013.0 6.4
25/05:30am 7.5 4.7 5.0 84 1.1 SSW 9 15 5 8 1012.7 1012.7 6.4
25/05:00am 7.1 3.7 4.2 82 1.3 SW 11 15 6 8 1012.7 1012.7 6.4
25/04:44am 7.7 1.2 4.7 81 1.3 SSW 28 39 15 21 1012.7 1012.7 6.4
25/04:30am 7.4 4.9 4.7 83 1.2 S 7 19 4 10 1012.5 1012.5 6.2
25/04:00am 6.8 4.0 3.4 79 1.4 SSE 7 9 4 5 1012.4 1012.4 6.2
25/03:30am 7.5 3.7 3.7 77 1.6 SSW 13 17 7 9 1012.4 1012.4 6.2
25/03:00am 7.2 2.2 3.4 77 1.6 SW 19 24 10 13 1012.5 1012.5 6.2
25/02:30am 7.7 3.5 5.7 87 0.9 SSW 17 26 9 14 1012.6 1012.6 6.2
25/02:00am 7.4 4.0 5.9 90 0.7 SW 13 15 7 8 1012.7 1012.7 6.2
25/01:30am 7.0 4.7 5.6 91 0.6 S 7 11 4 6 1012.9 1012.9 6.2
25/01:00am 7.4 2.7 5.9 90 0.7 S 20 33 11 18 1013.1 1013.1 6.2
25/12:59am 7.4 2.7 5.9 90 0.7 S 20 35 11 19 1013.1 1013.1 6.2
25/12:45am 7.7 1.4 5.7 87 0.9 SW 28 35 15 19 1013.1 1013.1 6.0
25/12:30am 8.4 3.7 6.0 85 1.1 SW 20 33 11 18 1013.0 1013.0 5.4
25/12:00am 8.1 3.6 5.9 86 1.0 SW 19 28 10 15 1013.1 1013.1 5.4
 
Date/Time
EST
Temp
°C
App
Temp
°C
Dew
Point
°C
Rel
Hum
%
Delta-T
°C
Wind Press
QNH
hPa
Press
MSL
hPa
Rain since
9am
mm
Dir  Spd
km/h
Gust
km/h
Spd
kts
Gust
kts
24/11:30pm 7.9 3.8 6.2 89 0.8 SW 17 24 9 13 1013.3 1013.3 5.4
24/11:02pm 7.9 3.8 6.2 89 0.8 SW 17 20 9 11 1013.4 1013.4 5.4
24/11:00pm 7.9 4.2 6.2 89 0.8 SW 15 20 8 11 1013.4 1013.4 5.4
24/10:39pm 8.0 2.5 6.0 87 0.9 SW 24 32 13 17 1013.6 1013.6 4.0
24/10:30pm 8.3 2.1 6.1 86 1.0 SSW 28 33 15 18 1013.5 1013.5 3.2
24/10:00pm 8.4 4.1 5.2 80 1.4 SW 17 39 9 21 1013.7 1013.7 2.6
24/09:30pm 8.6 4.8 5.9 83 1.2 SW 15 20 8 11 1013.8 1013.8 2.4
24/09:00pm 8.1 4.7 5.7 85 1.1 SW 13 15 7 8 1014.0 1014.0 2.4
24/08:30pm 8.0 3.2 5.6 85 1.1 WSW 20 30 11 16 1014.1 1014.1 2.4
24/08:00pm 8.4 5.0 5.9 84 1.1 WSW 13 19 7 10 1014.3 1014.3 2.2
24/07:30pm 8.3 4.0 5.1 80 1.4 SW 17 33 9 18 1014.5 1014.5 2.2
24/07:00pm 8.2 4.9 4.4 77 1.7 SW 11 13 6 7 1014.4 1014.4 1.4
24/06:30pm 8.6 4.5 4.6 76 1.8 SW 15 19 8 10 1014.3 1014.3 1.4
24/06:00pm 9.1 5.2 5.3 77 1.7 WSW 15 20 8 11 1014.1 1014.1 1.4
24/05:30pm 10.0 5.4 5.4 73 2.1 WSW 19 28 10 15 1014.1 1014.1 1.4
24/05:00pm 10.0 5.3 5.0 71 2.3 SW 19 24 10 13 1014.1 1014.1 1.4
24/04:30pm 10.7 5.9 4.6 66 2.7 SW 19 26 10 14 1014.0 1014.0 1.4
24/04:00pm 11.0 6.1 5.1 67 2.7 SW 20 28 11 15 1014.1 1014.1 1.4
24/03:30pm 11.0 6.1 4.9 66 2.8 SW 20 26 11 14 1014.1 1014.1 1.4
24/03:00pm 11.2 5.9 5.1 66 2.8 SW 22 30 12 16 1014.2 1014.2 1.4
24/02:30pm 11.2 6.3 5.3 67 2.7 SW 20 28 11 15 1014.3 1014.3 1.4
24/02:00pm 10.4 5.4 6.4 76 1.9 SSW 22 30 12 16 1014.4 1014.4 1.4
24/01:30pm 10.1 6.0 6.3 77 1.8 SSW 17 26 9 14 1014.5 1014.5 1.4
24/01:00pm 10.0 5.6 6.5 79 1.6 SSW 19 30 10 16 1015.0 1015.0 1.4
24/12:30pm 10.4 7.0 7.8 84 1.3 SW 15 22 8 12 1015.5 1015.5 1.4
24/12:06pm 9.7 7.3 7.0 83 1.3 W 9 13 5 7 1015.8 1015.8 1.2
24/12:00pm 8.8 6.2 6.1 83 1.2 SW 9 13 5 7 1016.0 1016.0 1.2
24/11:47am 8.7 4.5 5.8 82 1.3 WSW 17 26 9 14 1016.2 1016.2 0.6
24/11:33am 9.7 5.3 6.4 80 1.5 SW 19 26 10 14 1016.3 1016.3 0.2
24/11:30am 9.6 5.1 6.1 79 1.6 SSW 19 24 10 13 1016.4 1016.4 0.2
24/11:23am 9.4 4.7 5.9 79 1.6 SW 20 28 11 15 1016.4 1016.4 0.2
24/11:00am 11.1 6.1 4.8 65 2.9 SW 20 30 11 16 1016.3 1016.3 0.0
24/10:30am 10.7 5.7 4.8 67 2.7 SSW 20 28 11 15 1016.4 1016.4 0.0
24/10:00am 10.7 7.3 5.7 71 2.3 S 13 26 7 14 1016.6 1016.6 0.0
24/09:30am 11.0 8.0 6.2 72 2.2 S 11 19 6 10 1016.9 1016.9 0.0

Other Formats:

Comma delimited format used in spreadsheet applications
http://www.bom.gov.au/fwo/IDT60801/IDT60801.94850.axf

JavaScript Object Notation format (JSON) in row-major order
http://www.bom.gov.au/fwo/IDT60801/IDT60801.94850.json